sensor_id;sensor_type;location;lat;lon;timestamp;pressure;altitude;pressure_sealevel;temperature;humidity
57056;BME280;42945;51.718;5.324;2023-07-29T00:00:12;100622.69;;;15.55;100.00
57056;BME280;42945;51.718;5.324;2023-07-29T00:02:37;104084.03;;;36.42;100.00
57056;BME280;42945;51.718;5.324;2023-07-29T00:05:03;100629.50;;;15.48;100.00
57056;BME280;42945;51.718;5.324;2023-07-29T00:07:28;100623.22;;;15.38;100.00
57056;BME280;42945;51.718;5.324;2023-07-29T00:09:54;100649.44;;;15.44;100.00
57056;BME280;42945;51.718;5.324;2023-07-29T00:12:19;100642.66;;;15.40;100.00
57056;BME280;42945;51.718;5.324;2023-07-29T00:14:44;100648.72;;;15.53;100.00
57056;BME280;42945;51.718;5.324;2023-07-29T00:17:10;100678.34;;;15.50;100.00
57056;BME280;42945;51.718;5.324;2023-07-29T00:19:35;100510.63;;;14.99;100.00
57056;BME280;42945;51.718;5.324;2023-07-29T00:22:00;100688.41;;;15.81;100.00
57056;BME280;42945;51.718;5.324;2023-07-29T00:24:25;100511.06;;;15.15;100.00
57056;BME280;42945;51.718;5.324;2023-07-29T00:26:51;100303.66;;;15.87;100.00
57056;BME280;42945;51.718;5.324;2023-07-29T00:29:16;100629.47;;;15.82;100.00
57056;BME280;42945;51.718;5.324;2023-07-29T00:31:41;100672.47;;;15.79;100.00
57056;BME280;42945;51.718;5.324;2023-07-29T00:34:07;100673.72;;;15.75;100.00
57056;BME280;42945;51.718;5.324;2023-07-29T00:36:32;100664.66;;;15.87;100.00
57056;BME280;42945;51.718;5.324;2023-07-29T00:38:57;100614.84;;;15.86;100.00
57056;BME280;42945;51.718;5.324;2023-07-29T00:41:23;100633.56;;;15.86;100.00
57056;BME280;42945;51.718;5.324;2023-07-29T00:43:48;100613.28;;;15.72;100.00
57056;BME280;42945;51.718;5.324;2023-07-29T00:46:14;100562.25;;;15.43;100.00
57056;BME280;42945;51.718;5.324;2023-07-29T00:48:40;100603.56;;;15.83;100.00
57056;BME280;42945;51.718;5.324;2023-07-29T00:51:05;100622.91;;;15.64;100.00
57056;BME280;42945;51.718;5.324;2023-07-29T00:53:31;100591.50;;;15.45;100.00
57056;BME280;42945;51.718;5.324;2023-07-29T00:55:56;100670.25;;;15.96;100.00
57056;BME280;42945;51.718;5.324;2023-07-29T00:58:22;100648.03;;;15.84;100.00
57056;BME280;42945;51.718;5.324;2023-07-29T01:00:47;100638.31;;;15.83;100.00
57056;BME280;42945;51.718;5.324;2023-07-29T01:03:12;100610.94;;;15.90;100.00
57056;BME280;42945;51.718;5.324;2023-07-29T01:06:09;100649.25;;;15.80;100.00
57056;BME280;42945;51.718;5.324;2023-07-29T01:08:55;100613.84;;;15.87;100.00
57056;BME280;42945;51.718;5.324;2023-07-29T01:12:48;100646.34;;;15.83;100.00
57056;BME280;42945;51.718;5.324;2023-07-29T01:15:11;100760.00;;;16.53;100.00
57056;BME280;42945;51.718;5.324;2023-07-29T01:17:46;100620.63;;;15.91;100.00
57056;BME280;42945;51.718;5.324;2023-07-29T01:20:14;100585.75;;;15.93;100.00
57056;BME280;42945;51.718;5.324;2023-07-29T01:22:41;100633.19;;;16.12;100.00
57056;BME280;42945;51.718;5.324;2023-07-29T01:25:06;100635.16;;;16.10;100.00
57056;BME280;42945;51.718;5.324;2023-07-29T01:27:32;100659.91;;;16.23;100.00
57056;BME280;42945;51.718;5.324;2023-07-29T01:29:57;100556.09;;;16.17;100.00
57056;BME280;42945;51.718;5.324;2023-07-29T01:33:06;100623.94;;;16.16;100.00
57056;BME280;42945;51.718;5.324;2023-07-29T01:35:48;100665.56;;;16.30;100.00
57056;BME280;42945;51.718;5.324;2023-07-29T01:38:20;100615.84;;;16.27;100.00
57056;BME280;42945;51.718;5.324;2023-07-29T01:40:48;100605.16;;;16.27;100.00
57056;BME280;42945;51.718;5.324;2023-07-29T01:43:14;100553.78;;;16.12;100.00
57056;BME280;42945;51.718;5.324;2023-07-29T01:45:39;100574.34;;;16.12;100.00
57056;BME280;42945;51.718;5.324;2023-07-29T01:48:06;100616.91;;;16.15;100.00
57056;BME280;42945;51.718;5.324;2023-07-29T01:50:32;100607.28;;;16.12;100.00
57056;BME280;42945;51.718;5.324;2023-07-29T01:52:58;100590.41;;;16.12;100.00
57056;BME280;42945;51.718;5.324;2023-07-29T01:55:23;100597.41;;;16.03;100.00
57056;BME280;42945;51.718;5.324;2023-07-29T01:57:48;100553.00;;;16.01;100.00
57056;BME280;42945;51.718;5.324;2023-07-29T02:00:51;100553.06;;;15.89;100.00
57056;BME280;42945;51.718;5.324;2023-07-29T02:03:16;100568.34;;;15.99;100.00
57056;BME280;42945;51.718;5.324;2023-07-29T02:05:41;100568.81;;;16.04;100.00
57056;BME280;42945;51.718;5.324;2023-07-29T02:08:09;100530.19;;;15.97;100.00
57056;BME280;42945;51.718;5.324;2023-07-29T02:10:35;100509.19;;;15.92;100.00
57056;BME280;42945;51.718;5.324;2023-07-29T02:13:00;100521.75;;;16.01;100.00
57056;BME280;42945;51.718;5.324;2023-07-29T02:15:25;100213.41;;;15.80;100.00
57056;BME280;42945;51.718;5.324;2023-07-29T02:17:51;100559.28;;;15.90;100.00
57056;BME280;42945;51.718;5.324;2023-07-29T02:20:17;100526.00;;;15.83;100.00
57056;BME280;42945;51.718;5.324;2023-07-29T02:22:42;100563.19;;;15.86;100.00
57056;BME280;42945;51.718;5.324;2023-07-29T02:25:08;100547.88;;;15.88;100.00
57056;BME280;42945;51.718;5.324;2023-07-29T02:27:33;100427.47;;;15.04;100.00
57056;BME280;42945;51.718;5.324;2023-07-29T02:33:20;100547.16;;;15.86;100.00
57056;BME280;42945;51.718;5.324;2023-07-29T02:35:45;100581.97;;;16.38;100.00
57056;BME280;42945;51.718;5.324;2023-07-29T02:38:11;100508.47;;;15.58;100.00
57056;BME280;42945;51.718;5.324;2023-07-29T02:40:37;100515.53;;;15.59;100.00
57056;BME280;42945;51.718;5.324;2023-07-29T02:43:02;100535.41;;;15.66;100.00
57056;BME280;42945;51.718;5.324;2023-07-29T02:45:28;100427.06;;;14.87;100.00
57056;BME280;42945;51.718;5.324;2023-07-29T02:47:54;100505.81;;;15.58;100.00
57056;BME280;42945;51.718;5.324;2023-07-29T02:50:19;100521.78;;;15.48;100.00
57056;BME280;42945;51.718;5.324;2023-07-29T02:52:44;100402.44;;;14.72;100.00
57056;BME280;42945;51.718;5.324;2023-07-29T02:55:09;100431.84;;;14.61;100.00
57056;BME280;42945;51.718;5.324;2023-07-29T02:57:35;100543.31;;;15.35;100.00
57056;BME280;42945;51.718;5.324;2023-07-29T03:00:00;100483.00;;;15.21;100.00
57056;BME280;42945;51.718;5.324;2023-07-29T03:02:26;100531.69;;;15.25;100.00
57056;BME280;42945;51.718;5.324;2023-07-29T03:04:51;100538.75;;;15.26;100.00
57056;BME280;42945;51.718;5.324;2023-07-29T03:07:16;100435.09;;;14.65;100.00
57056;BME280;42945;51.718;5.324;2023-07-29T03:09:43;100542.38;;;15.25;100.00
57056;BME280;42945;51.718;5.324;2023-07-29T03:12:12;100394.94;;;14.55;100.00
57056;BME280;42945;51.718;5.324;2023-07-29T03:14:38;100554.78;;;15.14;100.00
57056;BME280;42945;51.718;5.324;2023-07-29T03:17:03;100527.19;;;15.25;100.00
57056;BME280;42945;51.718;5.324;2023-07-29T03:19:31;100546.16;;;15.22;100.00
57056;BME280;42945;51.718;5.324;2023-07-29T03:21:57;100447.97;;;14.60;100.00
57056;BME280;42945;51.718;5.324;2023-07-29T03:24:22;100521.47;;;15.30;100.00
57056;BME280;42945;51.718;5.324;2023-07-29T03:26:47;100539.22;;;15.20;100.00
57056;BME280;42945;51.718;5.324;2023-07-29T03:29:13;100492.28;;;15.06;100.00
57056;BME280;42945;51.718;5.324;2023-07-29T03:31:38;100524.19;;;15.19;100.00
57056;BME280;42945;51.718;5.324;2023-07-29T03:34:03;100497.84;;;15.14;100.00
57056;BME280;42945;51.718;5.324;2023-07-29T03:36:28;100565.94;;;15.20;100.00
57056;BME280;42945;51.718;5.324;2023-07-29T03:38:55;100623.13;;;15.83;100.00
57056;BME280;42945;51.718;5.324;2023-07-29T03:41:20;100547.03;;;15.11;100.00
57056;BME280;42945;51.718;5.324;2023-07-29T03:43:45;100533.22;;;15.06;100.00
57056;BME280;42945;51.718;5.324;2023-07-29T03:46:11;100502.59;;;15.10;100.00
57056;BME280;42945;51.718;5.324;2023-07-29T03:48:36;100572.03;;;15.10;100.00
57056;BME280;42945;51.718;5.324;2023-07-29T03:51:01;100549.19;;;15.18;100.00
57056;BME280;42945;51.718;5.324;2023-07-29T03:53:27;100477.38;;;14.92;100.00
57056;BME280;42945;51.718;5.324;2023-07-29T03:55:52;100493.19;;;14.95;100.00
57056;BME280;42945;51.718;5.324;2023-07-29T03:58:17;100520.94;;;14.92;100.00
57056;BME280;42945;51.718;5.324;2023-07-29T04:00:43;100519.38;;;15.01;100.00
57056;BME280;42945;51.718;5.324;2023-07-29T04:03:08;100456.63;;;14.95;100.00
57056;BME280;42945;51.718;5.324;2023-07-29T04:05:33;100413.81;;;14.86;100.00
57056;BME280;42945;51.718;5.324;2023-07-29T04:07:59;100496.81;;;14.83;100.00
57056;BME280;42945;51.718;5.324;2023-07-29T04:10:25;100473.16;;;14.89;100.00
57056;BME280;42945;51.718;5.324;2023-07-29T04:12:51;100465.78;;;14.82;100.00
57056;BME280;42945;51.718;5.324;2023-07-29T04:15:16;100506.53;;;14.84;100.00
57056;BME280;42945;51.718;5.324;2023-07-29T04:17:41;100493.19;;;14.84;100.00
57056;BME280;42945;51.718;5.324;2023-07-29T04:20:07;100392.25;;;14.11;100.00
57056;BME280;42945;51.718;5.324;2023-07-29T04:22:32;100516.72;;;14.79;100.00
57056;BME280;42945;51.718;5.324;2023-07-29T04:24:58;100419.75;;;14.23;100.00
57056;BME280;42945;51.718;5.324;2023-07-29T04:27:23;100506.44;;;14.85;100.00
57056;BME280;42945;51.718;5.324;2023-07-29T04:29:49;100528.63;;;14.86;100.00
57056;BME280;42945;51.718;5.324;2023-07-29T04:32:14;100548.75;;;14.90;100.00
57056;BME280;42945;51.718;5.324;2023-07-29T04:34:39;100542.81;;;14.98;100.00
57056;BME280;42945;51.718;5.324;2023-07-29T04:37:06;100571.34;;;14.97;100.00
57056;BME280;42945;51.718;5.324;2023-07-29T04:39:31;100528.63;;;14.97;100.00
57056;BME280;42945;51.718;5.324;2023-07-29T04:41:58;100868.59;;;14.98;100.00
57056;BME280;42945;51.718;5.324;2023-07-29T04:44:24;100544.88;;;14.94;100.00
57056;BME280;42945;51.718;5.324;2023-07-29T04:46:49;100555.91;;;15.01;100.00
57056;BME280;42945;51.718;5.324;2023-07-29T04:49:14;100432.31;;;14.44;100.00
57056;BME280;42945;51.718;5.324;2023-07-29T04:51:39;100509.41;;;15.03;100.00
57056;BME280;42945;51.718;5.324;2023-07-29T04:54:05;100556.59;;;15.14;100.00
57056;BME280;42945;51.718;5.324;2023-07-29T04:56:30;100549.91;;;15.20;100.00
57056;BME280;42945;51.718;5.324;2023-07-29T04:58:55;100487.03;;;15.15;100.00
57056;BME280;42945;51.718;5.324;2023-07-29T05:01:21;100560.59;;;15.20;100.00
57056;BME280;42945;51.718;5.324;2023-07-29T05:03:46;100516.06;;;15.20;100.00
57056;BME280;42945;51.718;5.324;2023-07-29T05:06:11;100526.75;;;15.20;100.00
57056;BME280;42945;51.718;5.324;2023-07-29T05:08:37;100556.72;;;15.24;100.00
57056;BME280;42945;51.718;5.324;2023-07-29T05:11:02;100476.59;;;15.24;100.00
57056;BME280;42945;51.718;5.324;2023-07-29T05:13:27;100551.94;;;15.27;100.00
57056;BME280;42945;51.718;5.324;2023-07-29T05:15:53;100586.84;;;15.26;100.00
57056;BME280;42945;51.718;5.324;2023-07-29T05:18:18;100516.84;;;15.32;100.00
57056;BME280;42945;51.718;5.324;2023-07-29T05:20:44;100521.47;;;15.30;100.00
57056;BME280;42945;51.718;5.324;2023-07-29T05:23:09;100432.53;;;14.74;100.00
57056;BME280;42945;51.718;5.324;2023-07-29T05:25:34;100520.56;;;15.41;100.00
57056;BME280;42945;51.718;5.324;2023-07-29T05:28:01;100542.50;;;15.55;100.00
57056;BME280;42945;51.718;5.324;2023-07-29T05:30:26;100534.75;;;15.52;100.00
57056;BME280;42945;51.718;5.324;2023-07-29T05:32:52;100496.91;;;15.68;100.00
57056;BME280;42945;51.718;5.324;2023-07-29T05:35:17;100542.91;;;15.72;100.00
57056;BME280;42945;51.718;5.324;2023-07-29T05:37:43;100548.88;;;15.75;100.00
57056;BME280;42945;51.718;5.324;2023-07-29T05:40:09;100582.75;;;15.86;100.00
57056;BME280;42945;51.718;5.324;2023-07-29T05:42:35;100523.25;;;15.73;100.00
57056;BME280;42945;51.718;5.324;2023-07-29T05:45:01;100459.47;;;15.68;100.00
57056;BME280;42945;51.718;5.324;2023-07-29T05:50:48;100532.13;;;16.16;100.00
57056;BME280;42945;51.718;5.324;2023-07-29T05:53:15;100631.34;;;16.76;100.00
57056;BME280;42945;51.718;5.324;2023-07-29T05:55:40;100535.19;;;16.11;100.00
57056;BME280;42945;51.718;5.324;2023-07-29T05:58:06;100540.03;;;16.17;100.00
57056;BME280;42945;51.718;5.324;2023-07-29T06:00:31;100532.19;;;16.25;100.00
57056;BME280;42945;51.718;5.324;2023-07-29T06:02:57;100500.31;;;16.22;100.00
57056;BME280;42945;51.718;5.324;2023-07-29T06:05:22;100534.97;;;16.24;100.00
57056;BME280;42945;51.718;5.324;2023-07-29T06:07:47;100397.25;;;15.66;100.00
57056;BME280;42945;51.718;5.324;2023-07-29T06:10:14;100564.97;;;16.48;100.00
57056;BME280;42945;51.718;5.324;2023-07-29T06:12:43;100501.19;;;16.63;100.00
57056;BME280;42945;51.718;5.324;2023-07-29T06:15:08;100550.81;;;16.58;100.00
57056;BME280;42945;51.718;5.324;2023-07-29T06:17:34;100516.38;;;16.53;100.00
57056;BME280;42945;51.718;5.324;2023-07-29T06:19:59;100551.47;;;16.50;100.00
57056;BME280;42945;51.718;5.324;2023-07-29T06:22:24;100524.28;;;16.54;100.00
57056;BME280;42945;51.718;5.324;2023-07-29T06:24:50;100483.25;;;16.44;100.00
57056;BME280;42945;51.718;5.324;2023-07-29T06:27:15;100527.69;;;16.57;100.00
57056;BME280;42945;51.718;5.324;2023-07-29T06:29:40;100531.72;;;16.51;100.00
57056;BME280;42945;51.718;5.324;2023-07-29T06:32:06;100593.53;;;16.69;100.00
57056;BME280;42945;51.718;5.324;2023-07-29T06:34:31;100541.78;;;16.59;100.00
57056;BME280;42945;51.718;5.324;2023-07-29T06:36:56;100551.06;;;16.54;100.00
57056;BME280;42945;51.718;5.324;2023-07-29T06:39:22;100492.81;;;16.78;100.00
57056;BME280;42945;51.718;5.324;2023-07-29T06:41:47;100541.34;;;16.94;100.00
57056;BME280;42945;51.718;5.324;2023-07-29T06:44:13;100518.13;;;17.04;100.00
57056;BME280;42945;51.718;5.324;2023-07-29T06:46:39;100557.16;;;16.97;100.00
57056;BME280;42945;51.718;5.324;2023-07-29T06:49:05;100554.53;;;17.17;100.00
57056;BME280;42945;51.718;5.324;2023-07-29T06:51:30;100498.09;;;16.99;100.00
57056;BME280;42945;51.718;5.324;2023-07-29T06:53:59;100551.44;;;17.31;100.00
57056;BME280;42945;51.718;5.324;2023-07-29T06:56:24;100370.53;;;16.47;100.00
57056;BME280;42945;51.718;5.324;2023-07-29T06:58:52;100496.13;;;17.01;100.00
57056;BME280;42945;51.718;5.324;2023-07-29T07:01:18;100526.63;;;17.48;100.00
57056;BME280;42945;51.718;5.324;2023-07-29T07:03:43;100553.16;;;17.90;100.00
57056;BME280;42945;51.718;5.324;2023-07-29T07:06:08;100548.94;;;17.68;100.00
57056;BME280;42945;51.718;5.324;2023-07-29T07:08:34;100474.94;;;17.85;100.00
57056;BME280;42945;51.718;5.324;2023-07-29T07:10:59;100426.19;;;18.37;100.00
57056;BME280;42945;51.718;5.324;2023-07-29T07:13:24;100499.78;;;18.07;100.00
57056;BME280;42945;51.718;5.324;2023-07-29T07:15:50;100488.75;;;18.00;100.00
57056;BME280;42945;51.718;5.324;2023-07-29T07:18:15;100539.16;;;18.06;100.00
57056;BME280;42945;51.718;5.324;2023-07-29T07:20:40;100404.72;;;17.52;100.00
57056;BME280;42945;51.718;5.324;2023-07-29T07:23:06;100554.09;;;18.28;100.00
57056;BME280;42945;51.718;5.324;2023-07-29T07:25:35;100550.06;;;18.05;100.00
57056;BME280;42945;51.718;5.324;2023-07-29T07:28:01;100440.47;;;18.28;100.00
57056;BME280;42945;51.718;5.324;2023-07-29T07:30:26;100523.91;;;18.17;100.00
57056;BME280;42945;51.718;5.324;2023-07-29T07:32:51;100540.72;;;18.56;100.00
57056;BME280;42945;51.718;5.324;2023-07-29T07:35:17;100507.94;;;18.53;100.00
57056;BME280;42945;51.718;5.324;2023-07-29T07:37:42;100455.22;;;18.52;100.00
57056;BME280;42945;51.718;5.324;2023-07-29T07:40:08;100425.50;;;17.98;100.00
57056;BME280;42945;51.718;5.324;2023-07-29T07:42:33;100562.81;;;18.78;100.00
57056;BME280;42945;51.718;5.324;2023-07-29T07:44:58;100497.06;;;19.27;100.00
57056;BME280;42945;51.718;5.324;2023-07-29T07:47:24;100517.56;;;19.46;100.00
57056;BME280;42945;51.718;5.324;2023-07-29T07:49:49;100514.47;;;19.59;100.00
57056;BME280;42945;51.718;5.324;2023-07-29T07:52:15;100527.25;;;19.39;100.00
57056;BME280;42945;51.718;5.324;2023-07-29T07:54:41;100491.00;;;18.80;100.00
57056;BME280;42945;51.718;5.324;2023-07-29T07:57:06;100386.91;;;18.36;100.00
57056;BME280;42945;51.718;5.324;2023-07-29T07:59:31;100416.19;;;18.29;100.00
57056;BME280;42945;51.718;5.324;2023-07-29T08:01:56;100520.53;;;19.07;100.00
57056;BME280;42945;51.718;5.324;2023-07-29T08:04:22;100534.28;;;18.77;100.00
57056;BME280;42945;51.718;5.324;2023-07-29T08:06:47;100497.09;;;19.00;100.00
57056;BME280;42945;51.718;5.324;2023-07-29T08:09:12;100522.69;;;19.04;100.00
57056;BME280;42945;51.718;5.324;2023-07-29T08:11:38;100439.31;;;18.13;100.00
57056;BME280;42945;51.718;5.324;2023-07-29T08:14:03;100515.94;;;19.18;100.00
57056;BME280;42945;51.718;5.324;2023-07-29T08:16:28;100466.31;;;18.94;100.00
57056;BME280;42945;51.718;5.324;2023-07-29T08:18:54;100560.88;;;19.25;100.00
57056;BME280;42945;51.718;5.324;2023-07-29T08:21:19;100420.53;;;18.86;100.00
57056;BME280;42945;51.718;5.324;2023-07-29T08:23:44;100139.75;;;19.67;100.00
57056;BME280;42945;51.718;5.324;2023-07-29T08:26:10;100391.59;;;18.80;100.00
57056;BME280;42945;51.718;5.324;2023-07-29T08:28:37;100518.09;;;19.32;100.00
57056;BME280;42945;51.718;5.324;2023-07-29T08:31:02;100480.25;;;19.70;100.00
57056;BME280;42945;51.718;5.324;2023-07-29T08:33:28;100586.50;;;20.80;100.00
57056;BME280;42945;51.718;5.324;2023-07-29T08:35:55;100500.63;;;20.16;100.00
57056;BME280;42945;51.718;5.324;2023-07-29T08:38:21;100472.03;;;19.89;100.00
57056;BME280;42945;51.718;5.324;2023-07-29T08:40:50;100507.59;;;19.39;100.00
57056;BME280;42945;51.718;5.324;2023-07-29T08:43:19;100476.59;;;19.53;100.00
57056;BME280;42945;51.718;5.324;2023-07-29T08:45:46;100503.34;;;19.72;100.00
57056;BME280;42945;51.718;5.324;2023-07-29T08:48:13;100488.66;;;19.66;100.00
57056;BME280;42945;51.718;5.324;2023-07-29T08:50:41;100491.56;;;19.73;100.00
57056;BME280;42945;51.718;5.324;2023-07-29T08:53:06;100497.88;;;20.08;100.00
57056;BME280;42945;51.718;5.324;2023-07-29T08:55:33;100458.78;;;19.96;100.00
57056;BME280;42945;51.718;5.324;2023-07-29T08:57:59;100508.84;;;19.89;100.00
57056;BME280;42945;51.718;5.324;2023-07-29T09:00:26;100498.38;;;20.03;100.00
57056;BME280;42945;51.718;5.324;2023-07-29T09:02:52;100485.41;;;20.59;100.00
57056;BME280;42945;51.718;5.324;2023-07-29T09:05:17;100469.50;;;20.56;100.00
57056;BME280;42945;51.718;5.324;2023-07-29T09:07:44;100472.41;;;21.30;100.00
57056;BME280;42945;51.718;5.324;2023-07-29T09:10:09;100429.94;;;21.08;100.00
57056;BME280;42945;51.718;5.324;2023-07-29T09:12:38;100508.44;;;21.04;100.00
57056;BME280;42945;51.718;5.324;2023-07-29T09:15:04;100480.97;;;21.09;100.00
57056;BME280;42945;51.718;5.324;2023-07-29T09:17:32;100471.78;;;21.53;100.00
57056;BME280;42945;51.718;5.324;2023-07-29T09:19:58;100461.97;;;21.27;100.00
57056;BME280;42945;51.718;5.324;2023-07-29T09:22:23;100362.00;;;21.12;100.00
57056;BME280;42945;51.718;5.324;2023-07-29T09:24:50;100470.22;;;21.34;100.00
57056;BME280;42945;51.718;5.324;2023-07-29T09:27:27;100467.69;;;21.16;100.00
57056;BME280;42945;51.718;5.324;2023-07-29T09:29:53;100469.03;;;21.12;100.00
57056;BME280;42945;51.718;5.324;2023-07-29T09:32:22;100428.47;;;20.62;100.00
57056;BME280;42945;51.718;5.324;2023-07-29T09:34:48;100461.81;;;20.61;100.00
57056;BME280;42945;51.718;5.324;2023-07-29T09:37:21;100458.69;;;20.82;100.00
57056;BME280;42945;51.718;5.324;2023-07-29T09:39:49;100467.00;;;21.22;100.00
57056;BME280;42945;51.718;5.324;2023-07-29T09:42:19;100473.94;;;21.33;100.00
57056;BME280;42945;51.718;5.324;2023-07-29T09:44:45;100484.75;;;21.57;100.00
57056;BME280;42945;51.718;5.324;2023-07-29T09:47:19;100459.19;;;22.17;100.00
57056;BME280;42945;51.718;5.324;2023-07-29T09:49:44;100402.88;;;21.98;100.00
57056;BME280;42945;51.718;5.324;2023-07-29T09:52:09;100345.66;;;21.22;100.00
57056;BME280;42945;51.718;5.324;2023-07-29T09:54:36;100449.25;;;22.10;100.00
57056;BME280;42945;51.718;5.324;2023-07-29T09:57:02;100425.31;;;22.07;100.00
57056;BME280;42945;51.718;5.324;2023-07-29T09:59:58;100496.56;;;21.81;100.00
57056;BME280;42945;51.718;5.324;2023-07-29T10:02:24;100476.19;;;22.42;100.00
57056;BME280;42945;51.718;5.324;2023-07-29T10:04:52;100452.50;;;21.89;100.00
57056;BME280;42945;51.718;5.324;2023-07-29T10:07:19;100443.84;;;22.10;100.00
57056;BME280;42945;51.718;5.324;2023-07-29T10:09:45;100444.91;;;22.48;100.00
57056;BME280;42945;51.718;5.324;2023-07-29T10:12:11;100441.00;;;22.03;100.00
57056;BME280;42945;51.718;5.324;2023-07-29T10:14:40;100459.88;;;22.11;100.00
57056;BME280;42945;51.718;5.324;2023-07-29T10:17:05;100401.94;;;21.50;100.00
57056;BME280;42945;51.718;5.324;2023-07-29T10:19:31;100444.44;;;21.72;100.00
57056;BME280;42945;51.718;5.324;2023-07-29T10:21:59;100500.19;;;22.29;100.00
57056;BME280;42945;51.718;5.324;2023-07-29T10:24:30;100476.72;;;22.38;100.00
57056;BME280;42945;51.718;5.324;2023-07-29T10:26:59;100459.53;;;22.14;100.00
57056;BME280;42945;51.718;5.324;2023-07-29T10:29:30;100421.91;;;22.60;100.00
57056;BME280;42945;51.718;5.324;2023-07-29T10:31:57;100440.56;;;22.39;100.00
57056;BME280;42945;51.718;5.324;2023-07-29T10:34:22;100431.47;;;22.94;100.00
57056;BME280;42945;51.718;5.324;2023-07-29T10:36:50;100562.34;;;23.79;100.00
57056;BME280;42945;51.718;5.324;2023-07-29T10:39:16;100428.44;;;22.97;100.00
57056;BME280;42945;51.718;5.324;2023-07-29T10:42:00;100449.72;;;23.24;100.00
57056;BME280;42945;51.718;5.324;2023-07-29T10:47:19;100444.75;;;22.81;100.00
57056;BME280;42945;51.718;5.324;2023-07-29T10:49:58;100452.97;;;22.56;100.00
57056;BME280;42945;51.718;5.324;2023-07-29T10:55:02;100459.63;;;21.81;100.00
57056;BME280;42945;51.718;5.324;2023-07-29T10:57:38;100520.47;;;22.33;100.00
57056;BME280;42945;51.718;5.324;2023-07-29T11:00:07;100448.50;;;21.52;100.00
57056;BME280;42945;51.718;5.324;2023-07-29T11:02:38;100459.41;;;21.09;100.00
57056;BME280;42945;51.718;5.324;2023-07-29T11:05:17;100485.50;;;20.92;100.00
57056;BME280;42945;51.718;5.324;2023-07-29T11:07:44;100450.22;;;20.69;100.00
57056;BME280;42945;51.718;5.324;2023-07-29T11:10:11;100404.84;;;20.48;100.00
57056;BME280;42945;51.718;5.324;2023-07-29T11:12:50;100470.09;;;20.34;100.00
57056;BME280;42945;51.718;5.324;2023-07-29T11:15:25;100526.38;;;19.21;100.00
57056;BME280;42945;51.718;5.324;2023-07-29T11:18:01;100527.31;;;19.12;100.00
57056;BME280;42945;51.718;5.324;2023-07-29T11:20:29;100540.19;;;18.80;100.00
57056;BME280;42945;51.718;5.324;2023-07-29T11:22:55;100487.34;;;18.06;100.00
57056;BME280;42945;51.718;5.324;2023-07-29T11:25:23;100547.59;;;18.31;100.00
57056;BME280;42945;51.718;5.324;2023-07-29T11:27:52;100562.03;;;17.81;100.00
57056;BME280;42945;51.718;5.324;2023-07-29T11:30:18;100627.44;;;18.00;100.00
57056;BME280;42945;51.718;5.324;2023-07-29T11:32:45;100613.28;;;17.68;100.00
57056;BME280;42945;51.718;5.324;2023-07-29T11:35:12;100605.47;;;17.36;100.00
57056;BME280;42945;51.718;5.324;2023-07-29T11:37:39;100603.38;;;17.40;100.00
57056;BME280;42945;51.718;5.324;2023-07-29T11:40:05;100635.13;;;17.44;100.00
57056;BME280;42945;51.718;5.324;2023-07-29T11:42:33;100625.94;;;17.27;100.00
57056;BME280;42945;51.718;5.324;2023-07-29T11:44:59;100736.66;;;17.68;100.00
57056;BME280;42945;51.718;5.324;2023-07-29T11:47:25;100740.78;;;17.73;100.00
57056;BME280;42945;51.718;5.324;2023-07-29T11:53:00;100599.13;;;17.18;100.00
57056;BME280;42945;51.718;5.324;2023-07-29T11:55:26;100631.28;;;17.27;100.00
57056;BME280;42945;51.718;5.324;2023-07-29T11:57:51;100629.31;;;17.29;100.00
57056;BME280;42945;51.718;5.324;2023-07-29T12:00:17;100658.13;;;17.37;100.00
57056;BME280;42945;51.718;5.324;2023-07-29T12:02:44;100657.28;;;17.56;100.00
57056;BME280;42945;51.718;5.324;2023-07-29T12:05:11;100528.00;;;17.13;100.00
57056;BME280;42945;51.718;5.324;2023-07-29T12:07:42;100655.81;;;18.12;100.00
57056;BME280;42945;51.718;5.324;2023-07-29T12:10:08;100619.09;;;18.89;100.00
57056;BME280;42945;51.718;5.324;2023-07-29T12:12:44;100504.44;;;18.42;100.00
57056;BME280;42945;51.718;5.324;2023-07-29T12:15:10;100424.09;;;18.03;100.00
57056;BME280;42945;51.718;5.324;2023-07-29T12:17:42;100635.38;;;18.68;100.00
57056;BME280;42945;51.718;5.324;2023-07-29T12:20:10;100636.97;;;18.51;100.00
57056;BME280;42945;51.718;5.324;2023-07-29T12:22:36;100618.56;;;18.66;100.00
57056;BME280;42945;51.718;5.324;2023-07-29T12:25:02;100657.50;;;18.99;100.00
57056;BME280;42945;51.718;5.324;2023-07-29T12:27:30;100669.03;;;18.72;100.00
57056;BME280;42945;51.718;5.324;2023-07-29T12:29:55;100659.19;;;18.43;100.00
57056;BME280;42945;51.718;5.324;2023-07-29T12:32:26;100642.91;;;18.55;100.00
57056;BME280;42945;51.718;5.324;2023-07-29T12:34:53;100609.63;;;17.79;100.00
57056;BME280;42945;51.718;5.324;2023-07-29T12:37:18;100659.31;;;18.61;100.00
57056;BME280;42945;51.718;5.324;2023-07-29T12:39:44;100698.50;;;18.35;100.00
57056;BME280;42945;51.718;5.324;2023-07-29T12:42:09;100568.84;;;17.85;100.00
57056;BME280;42945;51.718;5.324;2023-07-29T12:44:36;100691.84;;;18.09;100.00
57056;BME280;42945;51.718;5.324;2023-07-29T12:47:04;100670.22;;;18.30;100.00
57056;BME280;42945;51.718;5.324;2023-07-29T12:49:30;100655.25;;;18.18;100.00
57056;BME280;42945;51.718;5.324;2023-07-29T12:51:57;100509.63;;;18.16;100.00
57056;BME280;42945;51.718;5.324;2023-07-29T12:54:22;100479.00;;;19.20;100.00